Luzerne, Michigan
Current Conditions -  °F | °C
As of 5:15 AM on Sunday 23 Nov 2014 (Local Time) from KGOV Reporting Station
Moderate Fog Moderate Fog  
Wind Chill: 36°   Ceiling: 200
Heat Index: 42°   Visibility: 0.5mi
Dew Point: 42°   Wind: 8mph
Humidity: 100%   Direction: 180°S
Pressure: 29.79"   Gusts: NA
Location:  44.62°N, 84.27°W
Report Text: KGOV 231015Z AUTO 18007KT 1/2SM FG OVC002 05/05 A2979 RMK AO2 T00530053
Loading
Personal Weather Stations






























Interactive Weather Map New forecast layout! Learn more

10-Day Weather Forecast

Advertisements
Track Severe Weather on mobile